Terminal Aerodrome Forecast
Issued by NWS

Current Version | Previous Version | Graphics & Text | Print | Product List | Glossary On
Versions: 1 2 3 4 5 6 7 8 9 10 11 12 13 14 15 16 17 18 19
832
FTUS41 KILN 271130
TAFLCK
TAF
KLCK 271130Z 2712/2812 19005KT P6SM SKC
     FM271500 22012G20KT P6SM SKC
     FM271700 24014G24KT P6SM FEW050 SCT250
     FM272300 21006KT P6SM SCT060 SCT250
     FM280900 18006KT P6SM SCT060 SCT250=

USA.gov is the U.S. government's official web portal to all federal, state and local government web resources and services.